sensor_id;sensor_type;location;lat;lon;timestamp;pressure;altitude;pressure_sealevel;temperature;humidity
37904;BME280;23738;50.422;18.758;2022-09-02T00:01:20;99009.14;;;11.59;65.10
37904;BME280;23738;50.422;18.758;2022-09-02T00:03:49;99008.41;;;11.55;64.99
37904;BME280;23738;50.422;18.758;2022-09-02T00:06:17;99001.48;;;11.54;65.14
37904;BME280;23738;50.422;18.758;2022-09-02T00:08:43;99003.63;;;11.54;65.27
37904;BME280;23738;50.422;18.758;2022-09-02T00:11:13;99003.63;;;11.54;65.26
37904;BME280;23738;50.422;18.758;2022-09-02T00:13:41;99002.98;;;11.52;65.16
37904;BME280;23738;50.422;18.758;2022-09-02T00:16:08;99006.55;;;11.48;65.17
37904;BME280;23738;50.422;18.758;2022-09-02T00:18:35;99009.13;;;11.42;65.25
37904;BME280;23738;50.422;18.758;2022-09-02T00:21:01;99003.28;;;11.36;65.22
37904;BME280;23738;50.422;18.758;2022-09-02T00:23:28;99006.02;;;11.32;65.19
37904;BME280;23738;50.422;18.758;2022-09-02T00:25:53;99005.76;;;11.27;65.17
37904;BME280;23738;50.422;18.758;2022-09-02T00:28:19;99007.30;;;11.25;65.34
37904;BME280;23738;50.422;18.758;2022-09-02T00:30:46;99005.16;;;11.25;65.47
37904;BME280;23738;50.422;18.758;2022-09-02T00:33:12;98999.65;;;11.26;65.46
37904;BME280;23738;50.422;18.758;2022-09-02T00:35:38;98993.76;;;11.24;65.36
37904;BME280;23738;50.422;18.758;2022-09-02T00:38:05;98997.09;;;11.22;65.39
37904;BME280;23738;50.422;18.758;2022-09-02T00:40:33;98999.50;;;11.17;65.43
37904;BME280;23738;50.422;18.758;2022-09-02T00:42:59;99000.56;;;11.12;65.42
37904;BME280;23738;50.422;18.758;2022-09-02T00:45:25;98999.11;;;11.09;65.49
37904;BME280;23738;50.422;18.758;2022-09-02T00:47:51;98996.55;;;11.05;65.45
37904;BME280;23738;50.422;18.758;2022-09-02T00:50:20;98996.23;;;11.04;65.56
37904;BME280;23738;50.422;18.758;2022-09-02T00:52:54;98995.41;;;11.04;65.71
37904;BME280;23738;50.422;18.758;2022-09-02T00:55:32;98988.99;;;11.02;65.70
37904;BME280;23738;50.422;18.758;2022-09-02T00:58:04;98989.30;;;11.03;65.64
37904;BME280;23738;50.422;18.758;2022-09-02T01:00:37;98982.70;;;11.03;65.57
37904;BME280;23738;50.422;18.758;2022-09-02T01:03:09;98983.92;;;11.01;65.57
37904;BME280;23738;50.422;18.758;2022-09-02T01:05:41;98981.52;;;10.95;65.52
37904;BME280;23738;50.422;18.758;2022-09-02T01:08:16;98978.13;;;10.91;65.57
37904;BME280;23738;50.422;18.758;2022-09-02T01:10:44;98979.19;;;10.86;65.50
37904;BME280;23738;50.422;18.758;2022-09-02T01:13:14;98980.41;;;10.83;65.68
37904;BME280;23738;50.422;18.758;2022-09-02T01:15:49;98977.13;;;10.81;65.87
37904;BME280;23738;50.422;18.758;2022-09-02T01:18:19;98976.31;;;10.81;65.87
37904;BME280;23738;50.422;18.758;2022-09-02T01:20:48;98979.95;;;10.80;65.87
37904;BME280;23738;50.422;18.758;2022-09-02T01:23:15;98984.10;;;10.78;65.84
37904;BME280;23738;50.422;18.758;2022-09-02T01:25:42;98981.36;;;10.76;65.87
37904;BME280;23738;50.422;18.758;2022-09-02T01:28:11;98981.72;;;10.72;65.85
37904;BME280;23738;50.422;18.758;2022-09-02T01:30:42;98984.44;;;10.68;65.83
37904;BME280;23738;50.422;18.758;2022-09-02T01:33:13;98980.21;;;10.63;65.76
37904;BME280;23738;50.422;18.758;2022-09-02T01:35:39;98981.21;;;10.62;65.96
37904;BME280;23738;50.422;18.758;2022-09-02T01:38:05;98977.46;;;10.61;66.12
37904;BME280;23738;50.422;18.758;2022-09-02T01:40:32;98980.11;;;10.61;66.14
37904;BME280;23738;50.422;18.758;2022-09-02T01:43:08;98977.64;;;10.59;66.10
37904;BME280;23738;50.422;18.758;2022-09-02T01:45:33;98983.30;;;10.56;66.19
37904;BME280;23738;50.422;18.758;2022-09-02T01:48:00;98980.09;;;10.50;66.14
37904;BME280;23738;50.422;18.758;2022-09-02T01:50:28;98977.81;;;10.47;66.17
37904;BME280;23738;50.422;18.758;2022-09-02T01:52:55;98980.34;;;10.45;66.19
37904;BME280;23738;50.422;18.758;2022-09-02T01:55:21;98979.70;;;10.43;66.24
37904;BME280;23738;50.422;18.758;2022-09-02T01:57:47;98980.57;;;10.39;66.30
37904;BME280;23738;50.422;18.758;2022-09-02T02:00:13;98975.61;;;10.40;66.65
37904;BME280;23738;50.422;18.758;2022-09-02T02:02:41;98977.25;;;10.41;66.55
37904;BME280;23738;50.422;18.758;2022-09-02T02:05:07;98969.19;;;10.39;66.63
37904;BME280;23738;50.422;18.758;2022-09-02T02:07:33;98966.76;;;10.37;66.62
37904;BME280;23738;50.422;18.758;2022-09-02T02:09:59;98971.27;;;10.32;66.62
37904;BME280;23738;50.422;18.758;2022-09-02T02:12:25;98969.12;;;10.32;66.64
37904;BME280;23738;50.422;18.758;2022-09-02T02:14:51;98963.91;;;10.28;66.71
37904;BME280;23738;50.422;18.758;2022-09-02T02:17:17;98966.92;;;10.25;66.71
37904;BME280;23738;50.422;18.758;2022-09-02T02:19:43;98961.70;;;10.21;66.66
37904;BME280;23738;50.422;18.758;2022-09-02T02:22:09;98962.39;;;10.19;66.83
37904;BME280;23738;50.422;18.758;2022-09-02T02:24:35;98964.64;;;10.22;67.09
37904;BME280;23738;50.422;18.758;2022-09-02T02:27:01;98954.89;;;10.22;67.01
37904;BME280;23738;50.422;18.758;2022-09-02T02:29:28;98951.75;;;10.23;67.03
37904;BME280;23738;50.422;18.758;2022-09-02T02:31:54;98958.00;;;10.26;66.97
37904;BME280;23738;50.422;18.758;2022-09-02T02:34:19;98957.03;;;10.23;66.90
37904;BME280;23738;50.422;18.758;2022-09-02T02:36:45;98956.11;;;10.20;66.88
37904;BME280;23738;50.422;18.758;2022-09-02T02:39:11;98953.48;;;10.16;66.81
37904;BME280;23738;50.422;18.758;2022-09-02T02:41:39;98964.93;;;10.12;66.85
37904;BME280;23738;50.422;18.758;2022-09-02T02:44:07;98957.37;;;10.09;66.88
37904;BME280;23738;50.422;18.758;2022-09-02T02:46:33;98964.83;;;10.06;66.78
37904;BME280;23738;50.422;18.758;2022-09-02T02:49:01;98967.47;;;10.06;66.97
37904;BME280;23738;50.422;18.758;2022-09-02T02:51:28;98964.83;;;10.06;67.06
37904;BME280;23738;50.422;18.758;2022-09-02T02:53:54;98965.47;;;10.08;66.97
37904;BME280;23738;50.422;18.758;2022-09-02T02:56:19;98958.76;;;10.05;66.97
37904;BME280;23738;50.422;18.758;2022-09-02T02:58:47;98961.58;;;10.04;66.98
37904;BME280;23738;50.422;18.758;2022-09-02T03:01:12;98959.12;;;10.02;66.96
37904;BME280;23738;50.422;18.758;2022-09-02T03:03:38;98957.23;;;9.96;66.93
37904;BME280;23738;50.422;18.758;2022-09-02T03:06:05;98959.58;;;9.91;66.93
37904;BME280;23738;50.422;18.758;2022-09-02T03:08:31;98955.87;;;9.85;66.96
37904;BME280;23738;50.422;18.758;2022-09-02T03:10:59;98955.73;;;9.83;67.12
37904;BME280;23738;50.422;18.758;2022-09-02T03:13:30;98952.59;;;9.83;67.31
37904;BME280;23738;50.422;18.758;2022-09-02T03:15:57;98957.19;;;9.85;67.32
37904;BME280;23738;50.422;18.758;2022-09-02T03:18:22;98952.91;;;9.84;67.33
37904;BME280;23738;50.422;18.758;2022-09-02T03:20:48;98946.17;;;9.82;67.30
37904;BME280;23738;50.422;18.758;2022-09-02T03:23:14;98949.70;;;9.78;67.37
37904;BME280;23738;50.422;18.758;2022-09-02T03:25:42;98944.92;;;9.78;67.45
37904;BME280;23738;50.422;18.758;2022-09-02T03:28:09;98941.81;;;9.74;67.46
37904;BME280;23738;50.422;18.758;2022-09-02T03:30:35;98945.16;;;9.72;67.41
37904;BME280;23738;50.422;18.758;2022-09-02T03:33:02;98940.24;;;9.69;67.53
37904;BME280;23738;50.422;18.758;2022-09-02T03:35:30;98939.24;;;9.70;67.64
37904;BME280;23738;50.422;18.758;2022-09-02T03:37:58;98943.02;;;9.72;67.63
37904;BME280;23738;50.422;18.758;2022-09-02T03:40:26;98950.30;;;9.70;67.63
37904;BME280;23738;50.422;18.758;2022-09-02T03:42:53;98950.30;;;9.70;67.55
37904;BME280;23738;50.422;18.758;2022-09-02T03:45:20;98957.24;;;9.67;67.57
37904;BME280;23738;50.422;18.758;2022-09-02T03:47:46;98952.85;;;9.63;67.57
37904;BME280;23738;50.422;18.758;2022-09-02T03:50:26;98954.70;;;9.58;67.55
37904;BME280;23738;50.422;18.758;2022-09-02T03:52:50;98953.77;;;9.55;67.60
37904;BME280;23738;50.422;18.758;2022-09-02T03:55:17;98958.86;;;9.57;67.71
37904;BME280;23738;50.422;18.758;2022-09-02T03:57:44;98967.21;;;9.60;68.04
37904;BME280;23738;50.422;18.758;2022-09-02T04:00:12;98960.44;;;9.62;67.94
37904;BME280;23738;50.422;18.758;2022-09-02T04:02:39;98964.40;;;9.62;67.93
37904;BME280;23738;50.422;18.758;2022-09-02T04:05:07;98964.40;;;9.62;67.91
37904;BME280;23738;50.422;18.758;2022-09-02T04:07:33;98961.80;;;9.58;67.91
37904;BME280;23738;50.422;18.758;2022-09-02T04:10:00;98958.72;;;9.54;67.95
37904;BME280;23738;50.422;18.758;2022-09-02T04:12:26;98966.98;;;9.51;68.01
37904;BME280;23738;50.422;18.758;2022-09-02T04:14:52;98963.09;;;9.47;67.96
37904;BME280;23738;50.422;18.758;2022-09-02T04:17:18;98961.80;;;9.43;67.94
37904;BME280;23738;50.422;18.758;2022-09-02T04:19:44;98959.66;;;9.43;68.14
37904;BME280;23738;50.422;18.758;2022-09-02T04:22:10;98964.91;;;9.47;68.54
37904;BME280;23738;50.422;18.758;2022-09-02T04:24:35;98969.62;;;9.51;68.60
37904;BME280;23738;50.422;18.758;2022-09-02T04:27:03;98970.73;;;9.57;68.67
37904;BME280;23738;50.422;18.758;2022-09-02T04:29:29;98967.71;;;9.60;68.64
37904;BME280;23738;50.422;18.758;2022-09-02T04:31:56;98963.93;;;9.58;68.61
37904;BME280;23738;50.422;18.758;2022-09-02T04:34:22;98969.20;;;9.58;68.59
37904;BME280;23738;50.422;18.758;2022-09-02T04:36:48;98964.95;;;9.57;68.56
37904;BME280;23738;50.422;18.758;2022-09-02T04:39:14;98968.77;;;9.55;68.60
37904;BME280;23738;50.422;18.758;2022-09-02T04:41:40;98965.81;;;9.54;68.62
37904;BME280;23738;50.422;18.758;2022-09-02T04:44:06;98965.31;;;9.54;68.72
37904;BME280;23738;50.422;18.758;2022-09-02T04:46:32;98966.39;;;9.60;68.96
37904;BME280;23738;50.422;18.758;2022-09-02T04:48:58;98969.00;;;9.64;68.98
37904;BME280;23738;50.422;18.758;2022-09-02T04:51:25;98964.98;;;9.68;68.97
37904;BME280;23738;50.422;18.758;2022-09-02T04:53:52;98969.72;;;9.73;69.08
37904;BME280;23738;50.422;18.758;2022-09-02T04:56:24;98967.48;;;9.80;69.08
37904;BME280;23738;50.422;18.758;2022-09-02T04:58:53;98966.46;;;9.96;69.05
37904;BME280;23738;50.422;18.758;2022-09-02T05:01:23;98966.46;;;9.96;69.05
37904;BME280;23738;50.422;18.758;2022-09-02T05:03:50;98958.98;;;9.99;69.00
37904;BME280;23738;50.422;18.758;2022-09-02T05:06:20;98962.89;;;10.18;69.14
37904;BME280;23738;50.422;18.758;2022-09-02T05:08:50;98960.56;;;10.30;69.36
37904;BME280;23738;50.422;18.758;2022-09-02T05:11:19;98960.45;;;10.49;69.28
37904;BME280;23738;50.422;18.758;2022-09-02T05:13:49;98956.19;;;10.58;69.34
37904;BME280;23738;50.422;18.758;2022-09-02T05:16:18;98959.22;;;10.77;69.28
37904;BME280;23738;50.422;18.758;2022-09-02T05:18:47;98958.63;;;10.92;69.33
37904;BME280;23738;50.422;18.758;2022-09-02T05:21:14;98958.53;;;11.06;69.27
37904;BME280;23738;50.422;18.758;2022-09-02T05:23:40;98960.22;;;11.14;69.30
37904;BME280;23738;50.422;18.758;2022-09-02T05:26:07;98956.33;;;11.27;69.38
37904;BME280;23738;50.422;18.758;2022-09-02T05:28:35;98954.08;;;11.41;69.50
37904;BME280;23738;50.422;18.758;2022-09-02T05:31:08;98952.25;;;11.59;69.72
37904;BME280;23738;50.422;18.758;2022-09-02T05:33:37;98953.81;;;11.81;69.80
37904;BME280;23738;50.422;18.758;2022-09-02T05:36:11;98952.89;;;12.02;69.78
37904;BME280;23738;50.422;18.758;2022-09-02T05:38:39;98951.42;;;12.23;69.90
37904;BME280;23738;50.422;18.758;2022-09-02T05:41:14;98949.66;;;12.44;69.89
37904;BME280;23738;50.422;18.758;2022-09-02T05:43:42;98949.16;;;12.64;69.80
37904;BME280;23738;50.422;18.758;2022-09-02T05:46:11;98948.26;;;12.81;69.55
37904;BME280;23738;50.422;18.758;2022-09-02T05:48:41;98952.65;;;12.97;69.74
37904;BME280;23738;50.422;18.758;2022-09-02T05:51:25;98953.78;;;13.19;69.83
37904;BME280;23738;50.422;18.758;2022-09-02T05:53:55;98954.15;;;13.42;69.73
37904;BME280;23738;50.422;18.758;2022-09-02T05:56:22;98952.89;;;13.64;69.55
37904;BME280;23738;50.422;18.758;2022-09-02T05:58:49;98951.63;;;13.80;69.35
37904;BME280;23738;50.422;18.758;2022-09-02T06:01:17;98948.56;;;13.99;69.32
37904;BME280;23738;50.422;18.758;2022-09-02T06:03:44;98945.12;;;14.14;69.23
37904;BME280;23738;50.422;18.758;2022-09-02T06:06:10;98947.28;;;14.30;69.24
37904;BME280;23738;50.422;18.758;2022-09-02T06:08:37;98947.52;;;14.51;69.23
37904;BME280;23738;50.422;18.758;2022-09-02T06:11:06;98941.23;;;14.70;68.98
37904;BME280;23738;50.422;18.758;2022-09-02T06:13:38;98951.84;;;14.86;68.73
37904;BME280;23738;50.422;18.758;2022-09-02T06:16:06;98952.13;;;15.03;68.63
37904;BME280;23738;50.422;18.758;2022-09-02T06:18:36;98952.09;;;15.18;68.40
37904;BME280;23738;50.422;18.758;2022-09-02T06:21:03;98956.52;;;15.40;68.39
37904;BME280;23738;50.422;18.758;2022-09-02T06:23:32;98951.52;;;15.59;68.23
37904;BME280;23738;50.422;18.758;2022-09-02T06:25:59;98953.08;;;15.94;67.76
37904;BME280;23738;50.422;18.758;2022-09-02T06:28:25;98953.08;;;15.94;67.76
37904;BME280;23738;50.422;18.758;2022-09-02T06:30:51;98953.80;;;16.11;67.90
37904;BME280;23738;50.422;18.758;2022-09-02T06:33:17;98950.84;;;16.30;67.70
37904;BME280;23738;50.422;18.758;2022-09-02T06:35:44;98957.84;;;16.52;67.51
37904;BME280;23738;50.422;18.758;2022-09-02T06:38:12;98958.98;;;16.74;67.07
37904;BME280;23738;50.422;18.758;2022-09-02T06:40:46;98955.17;;;16.94;66.78
37904;BME280;23738;50.422;18.758;2022-09-02T06:43:16;98958.79;;;17.11;66.49
37904;BME280;23738;50.422;18.758;2022-09-02T06:45:43;98959.50;;;17.30;66.17
37904;BME280;23738;50.422;18.758;2022-09-02T06:48:10;98963.56;;;17.44;65.76
37904;BME280;23738;50.422;18.758;2022-09-02T06:50:41;98966.50;;;17.56;65.62
37904;BME280;23738;50.422;18.758;2022-09-02T06:53:09;98967.05;;;17.68;65.30
37904;BME280;23738;50.422;18.758;2022-09-02T06:55:38;98965.88;;;17.87;65.11
37904;BME280;23738;50.422;18.758;2022-09-02T06:58:06;98966.34;;;17.98;64.91
37904;BME280;23738;50.422;18.758;2022-09-02T07:00:35;98968.05;;;18.16;64.69
37904;BME280;23738;50.422;18.758;2022-09-02T07:03:02;98962.99;;;18.31;64.55
37904;BME280;23738;50.422;18.758;2022-09-02T07:05:47;98962.52;;;18.48;64.41
37904;BME280;23738;50.422;18.758;2022-09-02T07:08:13;98965.02;;;18.66;63.98
37904;BME280;23738;50.422;18.758;2022-09-02T07:10:40;98962.63;;;18.84;63.68
37904;BME280;23738;50.422;18.758;2022-09-02T07:13:07;98963.21;;;19.03;63.65
37904;BME280;23738;50.422;18.758;2022-09-02T07:15:33;98959.77;;;19.22;63.36
37904;BME280;23738;50.422;18.758;2022-09-02T07:17:59;98962.91;;;19.35;62.66
37904;BME280;23738;50.422;18.758;2022-09-02T07:20:26;98962.50;;;19.43;62.23
37904;BME280;23738;50.422;18.758;2022-09-02T07:22:52;98961.36;;;19.56;62.32
37904;BME280;23738;50.422;18.758;2022-09-02T07:25:19;98966.38;;;19.69;61.72
37904;BME280;23738;50.422;18.758;2022-09-02T07:27:45;98961.98;;;19.82;61.55
37904;BME280;23738;50.422;18.758;2022-09-02T07:30:12;98970.25;;;20.00;61.13
37904;BME280;23738;50.422;18.758;2022-09-02T07:32:38;98962.11;;;20.14;60.92
37904;BME280;23738;50.422;18.758;2022-09-02T07:35:06;98959.63;;;20.32;60.53
37904;BME280;23738;50.422;18.758;2022-09-02T07:37:33;98961.41;;;20.46;60.07
37904;BME280;23738;50.422;18.758;2022-09-02T07:40:19;98961.48;;;20.53;59.19
37904;BME280;23738;50.422;18.758;2022-09-02T07:42:45;98962.90;;;20.61;58.58
37904;BME280;23738;50.422;18.758;2022-09-02T07:45:11;98967.34;;;20.75;58.54
37904;BME280;23738;50.422;18.758;2022-09-02T07:47:38;98969.63;;;20.90;57.98
37904;BME280;23738;50.422;18.758;2022-09-02T07:50:04;98958.48;;;21.06;57.81
37904;BME280;23738;50.422;18.758;2022-09-02T07:52:30;98962.39;;;21.25;57.68
37904;BME280;23738;50.422;18.758;2022-09-02T07:54:56;98968.41;;;21.40;57.57
37904;BME280;23738;50.422;18.758;2022-09-02T07:57:22;98967.96;;;21.56;57.03
37904;BME280;23738;50.422;18.758;2022-09-02T07:59:49;98971.02;;;21.72;56.81
37904;BME280;23738;50.422;18.758;2022-09-02T08:02:15;98971.36;;;21.88;56.34
37904;BME280;23738;50.422;18.758;2022-09-02T08:04:43;98968.77;;;22.03;56.11
37904;BME280;23738;50.422;18.758;2022-09-02T08:07:10;98966.42;;;22.17;55.27
37904;BME280;23738;50.422;18.758;2022-09-02T08:09:36;98968.86;;;22.24;54.71
37904;BME280;23738;50.422;18.758;2022-09-02T08:12:02;98968.33;;;22.24;54.02
37904;BME280;23738;50.422;18.758;2022-09-02T08:14:28;98966.19;;;22.36;53.93
37904;BME280;23738;50.422;18.758;2022-09-02T08:16:55;98970.80;;;22.51;54.28
37904;BME280;23738;50.422;18.758;2022-09-02T08:19:23;98962.23;;;22.64;54.08
37904;BME280;23738;50.422;18.758;2022-09-02T08:21:50;98968.98;;;22.77;53.39
37904;BME280;23738;50.422;18.758;2022-09-02T08:24:16;98960.38;;;22.93;53.70
37904;BME280;23738;50.422;18.758;2022-09-02T08:26:41;98959.84;;;23.01;53.34
37904;BME280;23738;50.422;18.758;2022-09-02T08:29:07;98964.69;;;22.86;52.14
37904;BME280;23738;50.422;18.758;2022-09-02T08:31:36;98964.87;;;22.51;52.01
37904;BME280;23738;50.422;18.758;2022-09-02T08:34:02;98963.55;;;22.54;52.02
37904;BME280;23738;50.422;18.758;2022-09-02T08:36:28;98964.03;;;22.31;52.37
37904;BME280;23738;50.422;18.758;2022-09-02T08:38:55;98959.14;;;22.20;52.62
37904;BME280;23738;50.422;18.758;2022-09-02T08:41:24;98965.14;;;22.35;51.89
37904;BME280;23738;50.422;18.758;2022-09-02T08:43:53;98961.10;;;22.45;52.17
37904;BME280;23738;50.422;18.758;2022-09-02T08:46:23;98966.45;;;22.30;51.49
37904;BME280;23738;50.422;18.758;2022-09-02T08:49:09;98970.28;;;22.49;50.96
37904;BME280;23738;50.422;18.758;2022-09-02T08:54:28;98959.83;;;23.23;50.41
37904;BME280;23738;50.422;18.758;2022-09-02T08:56:55;98957.13;;;23.31;49.67
37904;BME280;23738;50.422;18.758;2022-09-02T08:59:22;98955.80;;;23.21;50.23
37904;BME280;23738;50.422;18.758;2022-09-02T09:02:04;98950.63;;;23.55;49.52
37904;BME280;23738;50.422;18.758;2022-09-02T09:08:05;98946.34;;;23.49;48.18
37904;BME280;23738;50.422;18.758;2022-09-02T09:13:51;98944.48;;;22.78;48.80
37904;BME280;23738;50.422;18.758;2022-09-02T09:16:45;98942.55;;;22.53;48.88
37904;BME280;23738;50.422;18.758;2022-09-02T09:19:22;98941.70;;;22.33;49.88
37904;BME280;23738;50.422;18.758;2022-09-02T09:21:59;98940.34;;;22.30;49.63
37904;BME280;23738;50.422;18.758;2022-09-02T09:24:31;98938.58;;;22.74;49.20
37904;BME280;23738;50.422;18.758;2022-09-02T09:27:01;98932.08;;;23.15;48.76
37904;BME280;23738;50.422;18.758;2022-09-02T09:29:32;98926.13;;;23.36;48.52
37904;BME280;23738;50.422;18.758;2022-09-02T09:31:59;98927.52;;;23.21;48.27
37904;BME280;23738;50.422;18.758;2022-09-02T09:37:29;98934.25;;;22.75;47.60
37904;BME280;23738;50.422;18.758;2022-09-02T09:39:57;98926.13;;;22.47;48.03
37904;BME280;23738;50.422;18.758;2022-09-02T09:42:36;98928.25;;;22.33;47.94
37904;BME280;23738;50.422;18.758;2022-09-02T09:53:30;98918.53;;;23.69;45.75
37904;BME280;23738;50.422;18.758;2022-09-02T09:58:34;98912.38;;;24.17;44.77
37904;BME280;23738;50.422;18.758;2022-09-02T10:04:02;98914.69;;;23.80;44.27
37904;BME280;23738;50.422;18.758;2022-09-02T10:06:39;98918.94;;;23.98;44.87
37904;BME280;23738;50.422;18.758;2022-09-02T10:12:08;98903.86;;;24.81;43.90
37904;BME280;23738;50.422;18.758;2022-09-02T10:14:43;98894.72;;;25.08;44.07
37904;BME280;23738;50.422;18.758;2022-09-02T10:23:14;98903.84;;;24.47;43.15
37904;BME280;23738;50.422;18.758;2022-09-02T10:29:00;98906.44;;;23.43;42.90
37904;BME280;23738;50.422;18.758;2022-09-02T10:34:53;98908.36;;;22.49;42.73
37904;BME280;23738;50.422;18.758;2022-09-02T10:37:59;98909.94;;;22.25;43.63
37904;BME280;23738;50.422;18.758;2022-09-02T10:46:24;98896.73;;;22.16;43.18
37904;BME280;23738;50.422;18.758;2022-09-02T11:00:56;98886.33;;;23.92;40.24
37904;BME280;23738;50.422;18.758;2022-09-02T11:06:18;98886.19;;;24.20;39.29
37904;BME280;23738;50.422;18.758;2022-09-02T11:08:52;98883.42;;;24.33;39.21
37904;BME280;23738;50.422;18.758;2022-09-02T11:14:19;98880.19;;;24.33;38.45
37904;BME280;23738;50.422;18.758;2022-09-02T11:16:59;98873.87;;;24.46;38.78
37904;BME280;23738;50.422;18.758;2022-09-02T11:19:35;98872.12;;;24.65;38.94
37904;BME280;23738;50.422;18.758;2022-09-02T11:28:02;98879.82;;;23.96;38.74
37904;BME280;23738;50.422;18.758;2022-09-02T11:30:44;98886.94;;;23.74;38.57
37904;BME280;23738;50.422;18.758;2022-09-02T11:33:17;98881.82;;;23.73;39.02
37904;BME280;23738;50.422;18.758;2022-09-02T11:35:46;98880.47;;;23.75;38.95
37904;BME280;23738;50.422;18.758;2022-09-02T11:38:21;98870.69;;;23.87;39.17
37904;BME280;23738;50.422;18.758;2022-09-02T11:43:47;98864.59;;;24.20;38.66
37904;BME280;23738;50.422;18.758;2022-09-02T11:46:45;98872.27;;;24.45;38.73
37904;BME280;23738;50.422;18.758;2022-09-02T11:49:33;98869.64;;;24.68;38.70
37904;BME280;23738;50.422;18.758;2022-09-02T11:52:41;98874.69;;;24.80;37.15
37904;BME280;23738;50.422;18.758;2022-09-02T11:55:15;98875.92;;;24.59;37.62
37904;BME280;23738;50.422;18.758;2022-09-02T11:57:53;98878.16;;;24.05;37.83
37904;BME280;23738;50.422;18.758;2022-09-02T12:00:28;98880.59;;;24.04;38.35
37904;BME280;23738;50.422;18.758;2022-09-02T12:08:12;98874.61;;;24.56;38.00
37904;BME280;23738;50.422;18.758;2022-09-02T12:13:32;98867.31;;;24.91;37.28
37904;BME280;23738;50.422;18.758;2022-09-02T12:21:27;98855.63;;;25.24;37.87
37904;BME280;23738;50.422;18.758;2022-09-02T12:31:48;98853.97;;;25.76;36.91
37904;BME280;23738;50.422;18.758;2022-09-02T12:37:01;98843.09;;;25.78;36.59
37904;BME280;23738;50.422;18.758;2022-09-02T12:42:26;98836.56;;;25.82;36.45
37904;BME280;23738;50.422;18.758;2022-09-02T12:45:05;98837.95;;;25.79;35.67
37904;BME280;23738;50.422;18.758;2022-09-02T12:48:26;98833.78;;;25.68;35.17
37904;BME280;23738;50.422;18.758;2022-09-02T12:50:57;98832.28;;;25.54;34.90
37904;BME280;23738;50.422;18.758;2022-09-02T12:53:45;98831.57;;;25.70;35.75
37904;BME280;23738;50.422;18.758;2022-09-02T12:56:20;98832.35;;;25.73;35.74
37904;BME280;23738;50.422;18.758;2022-09-02T12:58:50;98826.81;;;25.83;36.32
37904;BME280;23738;50.422;18.758;2022-09-02T13:01:24;98829.56;;;26.00;36.41
37904;BME280;23738;50.422;18.758;2022-09-02T13:31:08;98806.15;;;23.51;37.37
37904;BME280;23738;50.422;18.758;2022-09-02T13:33:10;98808.61;;;23.35;37.46
37904;BME280;23738;50.422;18.758;2022-09-02T13:35:38;98802.92;;;23.39;38.03
37904;BME280;23738;50.422;18.758;2022-09-02T13:38:10;98809.85;;;23.65;37.42
37904;BME280;23738;50.422;18.758;2022-09-02T13:40:37;98812.28;;;23.64;37.40
37904;BME280;23738;50.422;18.758;2022-09-02T13:45:41;98814.84;;;23.28;36.75
37904;BME280;23738;50.422;18.758;2022-09-02T13:48:19;98821.36;;;23.14;37.56
37904;BME280;23738;50.422;18.758;2022-09-02T13:50:48;98816.80;;;23.02;37.13
37904;BME280;23738;50.422;18.758;2022-09-02T13:53:33;98817.09;;;22.83;37.42
37904;BME280;23738;50.422;18.758;2022-09-02T13:56:01;98817.89;;;22.68;37.79
37904;BME280;23738;50.422;18.758;2022-09-02T14:01:29;98807.69;;;22.55;38.29
37904;BME280;23738;50.422;18.758;2022-09-02T14:03:58;98798.00;;;22.49;38.42
37904;BME280;23738;50.422;18.758;2022-09-02T14:06:36;98800.14;;;22.55;37.90
37904;BME280;23738;50.422;18.758;2022-09-02T14:09:06;98796.39;;;22.50;37.75
37904;BME280;23738;50.422;18.758;2022-09-02T14:11:43;98795.31;;;22.34;38.07
37904;BME280;23738;50.422;18.758;2022-09-02T14:14:13;98795.30;;;22.24;38.16
37904;BME280;23738;50.422;18.758;2022-09-02T14:16:41;98793.16;;;22.10;38.44
37904;BME280;23738;50.422;18.758;2022-09-02T14:19:09;98800.93;;;21.99;38.38
37904;BME280;23738;50.422;18.758;2022-09-02T14:21:49;98803.84;;;21.90;38.90
37904;BME280;23738;50.422;18.758;2022-09-02T14:24:21;98809.75;;;21.85;39.02
37904;BME280;23738;50.422;18.758;2022-09-02T14:26:56;98809.73;;;21.87;39.12
37904;BME280;23738;50.422;18.758;2022-09-02T14:29:20;98806.00;;;21.93;38.99
37904;BME280;23738;50.422;18.758;2022-09-02T14:34:37;98801.12;;;21.80;38.88
37904;BME280;23738;50.422;18.758;2022-09-02T14:37:24;98801.65;;;21.69;38.84
37904;BME280;23738;50.422;18.758;2022-09-02T14:40:07;98801.62;;;21.62;39.16
37904;BME280;23738;50.422;18.758;2022-09-02T14:42:51;98802.66;;;21.51;39.25
37904;BME280;23738;50.422;18.758;2022-09-02T14:45:27;98803.42;;;21.41;39.55
37904;BME280;23738;50.422;18.758;2022-09-02T14:47:56;98796.62;;;21.23;39.51
37904;BME280;23738;50.422;18.758;2022-09-02T14:50:27;98802.53;;;21.20;40.22
37904;BME280;23738;50.422;18.758;2022-09-02T14:53:02;98797.67;;;21.17;40.52
37904;BME280;23738;50.422;18.758;2022-09-02T14:55:50;98795.81;;;21.20;40.81
37904;BME280;23738;50.422;18.758;2022-09-02T14:58:20;98788.05;;;21.26;40.56
37904;BME280;23738;50.422;18.758;2022-09-02T15:00:49;98785.88;;;21.23;40.75
37904;BME280;23738;50.422;18.758;2022-09-02T15:03:21;98793.13;;;21.20;40.99
37904;BME280;23738;50.422;18.758;2022-09-02T15:05:48;98792.25;;;21.12;41.12
37904;BME280;23738;50.422;18.758;2022-09-02T15:08:15;98790.63;;;21.06;41.36
37904;BME280;23738;50.422;18.758;2022-09-02T15:10:41;98786.27;;;21.00;41.69
37904;BME280;23738;50.422;18.758;2022-09-02T15:13:31;98792.98;;;21.00;41.90
37904;BME280;23738;50.422;18.758;2022-09-02T15:15:44;98793.24;;;20.96;41.90
37904;BME280;23738;50.422;18.758;2022-09-02T15:18:10;98793.76;;;20.90;41.96
37904;BME280;23738;50.422;18.758;2022-09-02T15:20:36;98794.02;;;20.89;42.23
37904;BME280;23738;50.422;18.758;2022-09-02T15:23:02;98784.31;;;20.85;42.29